createdAt,value
2018-12-22T00:00:14.130Z,5.50
2018-12-22T00:01:14.100Z,8.00
2018-12-22T00:02:14.210Z,7.10
2018-12-22T00:03:14.107Z,7.30
2018-12-22T00:04:14.069Z,7.20
2018-12-22T00:05:14.075Z,7.10
2018-12-22T00:06:14.046Z,5.60
2018-12-22T00:07:14.035Z,6.10
2018-12-22T00:08:14.021Z,6.00
2018-12-22T00:09:14.018Z,7.10
2018-12-22T00:10:14.031Z,7.70
2018-12-22T00:11:13.998Z,6.00
2018-12-22T00:12:13.975Z,7.20
2018-12-22T00:13:13.964Z,5.30
2018-12-22T00:14:13.961Z,5.30
2018-12-22T00:15:13.981Z,6.10
2018-12-22T00:16:13.947Z,3.40
2018-12-22T00:17:13.919Z,6.50
2018-12-22T00:18:13.914Z,5.90
2018-12-22T00:19:13.906Z,6.60
2018-12-22T00:20:13.886Z,4.90
2018-12-22T00:21:13.901Z,6.10
2018-12-22T00:22:13.918Z,5.80
2018-12-22T00:23:13.863Z,6.50
2018-12-22T00:24:13.842Z,6.90
2018-12-22T00:25:13.833Z,4.70
2018-12-22T00:26:13.848Z,5.60
2018-12-22T00:27:13.816Z,7.50
2018-12-22T00:28:21.951Z,6.80
2018-12-22T00:29:14.792Z,6.80
2018-12-22T00:30:13.784Z,7.80
2018-12-22T00:31:13.782Z,5.40
2018-12-22T00:32:13.751Z,6.40
2018-12-22T00:33:15.682Z,7.40
2018-12-22T00:34:13.732Z,8.00
2018-12-22T00:35:13.723Z,6.20
2018-12-22T00:36:13.728Z,6.50
2018-12-22T00:37:13.692Z,7.40
2018-12-22T00:38:13.687Z,9.20
2018-12-22T00:39:13.690Z,7.00
2018-12-22T00:40:13.662Z,6.00
2018-12-22T00:41:13.671Z,8.10
2018-12-22T00:42:13.642Z,7.20
2018-12-22T00:43:13.628Z,7.20
2018-12-22T00:44:13.629Z,8.20
2018-12-22T00:45:13.625Z,6.80
2018-12-22T00:46:13.644Z,7.90
2018-12-22T00:47:13.589Z,8.10
2018-12-22T00:48:13.580Z,8.20
2018-12-22T00:49:13.560Z,5.70
2018-12-22T00:50:13.566Z,7.90
2018-12-22T00:51:13.675Z,6.90
2018-12-22T00:52:13.536Z,5.80
2018-12-22T00:53:13.517Z,6.30
2018-12-22T00:54:13.521Z,10.20
2018-12-22T00:55:13.508Z,7.50
2018-12-22T00:56:13.503Z,6.00
2018-12-22T00:57:13.479Z,7.90
2018-12-22T00:58:13.479Z,6.20
2018-12-22T00:59:13.457Z,7.20
2018-12-22T01:00:13.843Z,7.50
2018-12-22T01:01:13.451Z,6.90
2018-12-22T01:02:13.419Z,5.10
2018-12-22T01:03:13.408Z,5.40
2018-12-22T01:04:13.401Z,5.40
2018-12-22T01:05:13.382Z,5.50
2018-12-22T01:06:13.392Z,7.80
2018-12-22T01:07:13.363Z,5.50
2018-12-22T01:08:13.356Z,6.50
2018-12-22T01:09:13.338Z,5.40
2018-12-22T01:10:13.331Z,5.10
2018-12-22T01:11:13.340Z,7.30
2018-12-22T01:12:13.335Z,5.70
2018-12-22T01:13:13.298Z,6.60
2018-12-22T01:14:13.282Z,5.80
2018-12-22T01:15:13.274Z,6.40
2018-12-22T01:16:13.258Z,5.30
2018-12-22T01:17:13.273Z,5.20
2018-12-22T01:18:13.243Z,4.20
2018-12-22T01:19:13.230Z,7.40
2018-12-22T01:20:13.214Z,5.20
2018-12-22T01:21:13.205Z,3.80
2018-12-22T01:22:13.282Z,3.80
2018-12-22T01:23:13.191Z,3.90
2018-12-22T01:24:13.173Z,3.80
2018-12-22T01:25:13.164Z,4.00
2018-12-22T01:26:13.149Z,4.40
2018-12-22T01:27:13.154Z,3.60
2018-12-22T01:28:13.128Z,3.70
2018-12-22T01:29:13.124Z,3.00
2018-12-22T01:30:13.115Z,3.50
2018-12-22T01:31:13.088Z,3.10
2018-12-22T01:32:13.099Z,3.30
2018-12-22T01:33:13.071Z,2.90
2018-12-22T01:34:13.061Z,2.40
2018-12-22T01:35:13.042Z,1.50
2018-12-22T01:36:13.048Z,3.00
2018-12-22T01:37:13.040Z,1.90
2018-12-22T01:38:13.014Z,2.80
2018-12-22T01:39:13.004Z,2.80
2018-12-22T01:40:12.994Z,3.60
2018-12-22T01:41:12.986Z,3.20
2018-12-22T01:42:12.992Z,2.70
2018-12-22T01:43:12.954Z,1.80
2018-12-22T01:44:12.946Z,1.80
2018-12-22T01:45:12.936Z,2.10
2018-12-22T01:46:12.937Z,2.10
2018-12-22T01:47:12.928Z,1.20
2018-12-22T01:48:12.900Z,1.60
2018-12-22T01:49:12.892Z,1.40
2018-12-22T01:50:12.875Z,2.40
2018-12-22T01:51:12.869Z,2.30
2018-12-22T01:52:12.858Z,2.90
2018-12-22T01:53:12.858Z,2.20
2018-12-22T01:54:12.830Z,1.40
2018-12-22T01:55:12.821Z,1.10
2018-12-22T01:56:12.816Z,1.30
2018-12-22T01:57:12.801Z,1.20
2018-12-22T01:58:12.801Z,1.40
2018-12-22T01:59:12.780Z,1.40
2018-12-22T02:00:12.816Z,1.30
2018-12-22T02:01:12.779Z,1.30
2018-12-22T02:02:12.751Z,0.90
2018-12-22T02:03:12.750Z,1.10
2018-12-22T02:04:12.723Z,1.00
2018-12-22T02:05:12.709Z,1.80
2018-12-22T02:06:12.703Z,1.10
2018-12-22T02:07:12.690Z,2.30
2018-12-22T02:08:12.690Z,1.00
2018-12-22T02:09:12.674Z,1.50
2018-12-22T02:10:12.657Z,0.90
2018-12-22T02:11:12.640Z,1.60
2018-12-22T02:12:12.625Z,1.50
2018-12-22T02:13:12.648Z,1.60
2018-12-22T02:14:12.615Z,0.80
2018-12-22T02:15:12.593Z,1.10
2018-12-22T02:16:12.584Z,1.70
2018-12-22T02:17:12.576Z,1.40
2018-12-22T02:18:12.582Z,1.30
2018-12-22T02:19:12.547Z,1.00
2018-12-22T02:20:12.541Z,0.80
2018-12-22T02:21:12.524Z,1.10
2018-12-22T02:22:12.511Z,2.40
2018-12-22T02:23:13.103Z,1.00
2018-12-22T02:24:12.494Z,0.90
2018-12-22T02:25:12.487Z,1.00
2018-12-22T02:26:12.483Z,1.50
2018-12-22T02:27:12.470Z,0.80
2018-12-22T02:28:12.465Z,1.70
2018-12-22T02:29:12.437Z,1.40
2018-12-22T02:30:12.440Z,1.50
2018-12-22T02:31:12.417Z,1.00
2018-12-22T02:32:12.407Z,0.90
2018-12-22T02:33:12.416Z,1.40
2018-12-22T02:34:12.385Z,1.00
2018-12-22T02:35:12.377Z,1.10
2018-12-22T02:36:12.356Z,1.30
2018-12-22T02:37:12.350Z,1.20
2018-12-22T02:38:12.369Z,1.10
2018-12-22T02:39:12.329Z,1.10
2018-12-22T02:40:12.319Z,1.10
2018-12-22T02:41:12.306Z,1.10
2018-12-22T02:42:12.299Z,1.10
2018-12-22T02:43:12.288Z,10.90
2018-12-22T02:44:12.284Z,1.40
2018-12-22T02:45:12.262Z,1.00
2018-12-22T02:46:12.242Z,1.00
2018-12-22T02:47:12.255Z,1.70
2018-12-22T02:48:12.223Z,1.50
2018-12-22T02:49:12.256Z,1.40
2018-12-22T02:50:12.209Z,1.30
2018-12-22T02:51:12.194Z,1.90
2018-12-22T02:52:12.179Z,1.00
2018-12-22T02:53:12.167Z,1.40
2018-12-22T02:54:12.171Z,1.10
2018-12-22T02:55:12.138Z,1.20
2018-12-22T02:56:12.140Z,1.50
2018-12-22T02:57:12.118Z,1.10
2018-12-22T02:58:12.107Z,0.90
2018-12-22T02:59:12.127Z,1.50
2018-12-22T03:00:12.092Z,1.30
2018-12-22T03:01:12.078Z,1.40
2018-12-22T03:02:12.072Z,1.40
2018-12-22T03:03:12.055Z,1.00
2018-12-22T03:04:12.065Z,1.40
2018-12-22T03:05:12.027Z,0.90
2018-12-22T03:06:12.043Z,0.90
2018-12-22T03:07:12.010Z,0.90
2018-12-22T03:08:12.001Z,0.80
2018-12-22T03:09:12.020Z,1.00
2018-12-22T03:10:11.973Z,1.20
2018-12-22T03:11:11.965Z,0.90
2018-12-22T03:12:11.960Z,0.90
2018-12-22T03:13:11.940Z,1.70
2018-12-22T03:14:11.948Z,1.10
2018-12-22T03:15:11.922Z,1.40
2018-12-22T03:16:11.921Z,1.00
2018-12-22T03:17:11.899Z,1.20
2018-12-22T03:18:11.888Z,1.20
2018-12-22T03:19:11.887Z,1.00
2018-12-22T03:20:11.863Z,0.90
2018-12-22T03:21:11.858Z,1.80
2018-12-22T03:22:11.835Z,1.00
2018-12-22T03:23:11.841Z,1.10
2018-12-22T03:24:11.815Z,1.20
2018-12-22T03:25:11.819Z,1.30
2018-12-22T03:26:11.793Z,1.20
2018-12-22T03:27:11.781Z,1.00
2018-12-22T03:28:11.798Z,1.20
2018-12-22T03:29:15.872Z,0.90
2018-12-22T03:30:11.762Z,1.90
2018-12-22T03:31:11.744Z,1.00
2018-12-22T03:32:11.731Z,1.20
2018-12-22T03:33:11.853Z,0.80
2018-12-22T03:34:11.707Z,1.70
2018-12-22T03:35:11.719Z,1.00
2018-12-22T03:36:11.681Z,1.30
2018-12-22T03:37:11.672Z,1.80
2018-12-22T03:38:11.666Z,1.90
2018-12-22T03:39:11.643Z,1.00
2018-12-22T03:40:11.669Z,1.30
2018-12-22T03:41:11.623Z,1.80
2018-12-22T03:42:11.612Z,0.90
2018-12-22T03:43:11.600Z,1.20
2018-12-22T03:44:11.592Z,0.90
2018-12-22T03:45:11.728Z,2.40
2018-12-22T03:46:11.570Z,1.20
2018-12-22T03:47:11.554Z,1.50
2018-12-22T03:48:11.543Z,0.90
2018-12-22T03:49:11.531Z,1.00
2018-12-22T03:50:11.548Z,1.60
2018-12-22T03:51:11.519Z,1.30
2018-12-22T03:52:11.503Z,1.10
2018-12-22T03:53:11.490Z,1.80
2018-12-22T03:54:11.500Z,1.20
2018-12-22T03:55:11.483Z,1.10
2018-12-22T03:56:11.460Z,2.00
2018-12-22T03:57:11.439Z,1.00
2018-12-22T03:58:11.433Z,1.50
2018-12-22T03:59:11.421Z,1.30
2018-12-22T04:00:11.431Z,1.90
2018-12-22T04:01:11.398Z,0.80
2018-12-22T04:02:11.389Z,2.60
2018-12-22T04:03:12.042Z,1.30
2018-12-22T04:04:11.366Z,1.50
2018-12-22T04:05:11.368Z,1.00
2018-12-22T04:06:11.343Z,1.10
2018-12-22T04:07:11.337Z,0.80
2018-12-22T04:08:11.321Z,1.30
2018-12-22T04:09:11.307Z,1.50
2018-12-22T04:10:11.319Z,1.80
2018-12-22T04:11:11.289Z,2.30
2018-12-22T04:12:11.274Z,1.30
2018-12-22T04:13:11.267Z,2.00
2018-12-22T04:14:11.272Z,3.60
2018-12-22T04:15:11.264Z,1.00
2018-12-22T04:16:11.222Z,1.10
2018-12-22T04:17:11.211Z,1.70
2018-12-22T04:18:11.204Z,1.40
2018-12-22T04:19:11.194Z,1.00
2018-12-22T04:20:11.207Z,1.70
2018-12-22T04:21:11.192Z,2.40
2018-12-22T04:22:11.157Z,1.50
2018-12-22T04:23:11.147Z,1.10
2018-12-22T04:24:11.152Z,1.50
2018-12-22T04:25:11.130Z,2.60
2018-12-22T04:26:11.131Z,1.10
2018-12-22T04:27:11.100Z,1.10
2018-12-22T04:28:11.095Z,0.80
2018-12-22T04:29:11.078Z,1.60
2018-12-22T04:30:11.075Z,1.00
2018-12-22T04:31:11.074Z,1.10
2018-12-22T04:32:11.050Z,1.00
2018-12-22T04:33:11.038Z,0.90
2018-12-22T04:34:11.029Z,1.00
2018-12-22T04:35:11.011Z,0.80
2018-12-22T04:36:11.018Z,1.00
2018-12-22T04:37:10.985Z,1.10
2018-12-22T04:38:10.982Z,2.10
2018-12-22T04:39:10.968Z,1.50
2018-12-22T04:40:10.965Z,1.00
2018-12-22T04:41:10.971Z,2.10
2018-12-22T04:42:10.943Z,2.30
2018-12-22T04:43:10.928Z,1.80
2018-12-22T04:44:10.917Z,1.50
2018-12-22T04:45:10.897Z,1.60
2018-12-22T04:46:10.906Z,1.00
2018-12-22T04:47:10.881Z,3.20
2018-12-22T04:48:10.867Z,1.30
2018-12-22T04:49:10.853Z,1.40
2018-12-22T04:50:10.841Z,0.80
2018-12-22T04:51:10.862Z,1.20
2018-12-22T04:52:10.816Z,2.10
2018-12-22T04:53:10.815Z,1.00
2018-12-22T04:54:10.795Z,1.60
2018-12-22T04:55:10.787Z,1.10
2018-12-22T04:56:10.798Z,0.90
2018-12-22T04:57:10.764Z,1.50
2018-12-22T04:58:10.751Z,0.70
2018-12-22T04:59:10.746Z,0.70
2018-12-22T05:00:10.733Z,1.40
2018-12-22T05:01:10.738Z,1.30
2018-12-22T05:02:10.707Z,1.40
2018-12-22T05:03:10.812Z,1.00
2018-12-22T05:04:10.683Z,1.10
2018-12-22T05:05:10.680Z,1.60
2018-12-22T05:06:10.688Z,2.20
2018-12-22T05:07:10.656Z,1.20
2018-12-22T05:08:10.640Z,1.60
2018-12-22T05:09:10.627Z,1.10
2018-12-22T05:10:10.619Z,2.10
2018-12-22T05:11:10.609Z,1.60
2018-12-22T05:12:10.613Z,2.70
2018-12-22T05:13:10.578Z,1.70
2018-12-22T05:14:10.570Z,1.50
2018-12-22T05:15:10.565Z,2.10
2018-12-22T05:16:10.556Z,1.00
2018-12-22T05:17:10.564Z,0.80
2018-12-22T05:18:10.535Z,1.40
2018-12-22T05:19:10.513Z,1.60
2018-12-22T05:20:10.501Z,1.20
2018-12-22T05:21:10.493Z,0.90
2018-12-22T05:22:10.505Z,1.10
2018-12-22T05:23:10.472Z,1.00
2018-12-22T05:24:10.459Z,1.30
2018-12-22T05:25:10.447Z,2.70
2018-12-22T05:26:10.433Z,0.90
2018-12-22T05:27:10.437Z,2.60
2018-12-22T05:28:10.417Z,1.60
2018-12-22T05:29:10.403Z,2.10
2018-12-22T05:30:10.389Z,1.60
2018-12-22T05:31:10.399Z,1.40
2018-12-22T05:32:10.397Z,1.40
2018-12-22T05:33:10.371Z,0.80
2018-12-22T05:34:10.349Z,1.50
2018-12-22T05:35:10.344Z,2.40
2018-12-22T05:36:10.323Z,1.30
2018-12-22T05:37:10.339Z,1.20
2018-12-22T05:38:10.303Z,1.20
2018-12-22T05:39:10.301Z,2.10
2018-12-22T05:40:10.281Z,1.60
2018-12-22T05:41:10.264Z,1.60
2018-12-22T05:42:10.267Z,2.50
2018-12-22T05:43:10.247Z,2.00
2018-12-22T05:44:10.232Z,1.90
2018-12-22T05:45:10.219Z,2.10
2018-12-22T05:46:10.211Z,1.60
2018-12-22T05:47:10.223Z,2.50
2018-12-22T05:48:10.193Z,3.10
2018-12-22T05:49:10.177Z,2.40
2018-12-22T05:50:10.173Z,1.60
2018-12-22T05:51:10.151Z,2.30
2018-12-22T05:52:10.142Z,3.00
2018-12-22T05:53:10.153Z,2.70
2018-12-22T05:54:10.118Z,1.40
2018-12-22T05:55:10.112Z,1.70
2018-12-22T05:56:10.103Z,1.10
2018-12-22T05:57:10.086Z,1.50
2018-12-22T05:58:10.088Z,1.60
2018-12-22T05:59:10.064Z,2.40
2018-12-22T06:00:10.051Z,2.00
2018-12-22T06:01:10.041Z,3.30
2018-12-22T06:02:10.026Z,2.10
2018-12-22T06:03:10.052Z,1.70
2018-12-22T06:04:10.011Z,3.00
2018-12-22T06:05:10.001Z,1.30
2018-12-22T06:06:09.984Z,1.20
2018-12-22T06:07:09.976Z,2.40
2018-12-22T06:08:09.987Z,2.40
2018-12-22T06:09:09.949Z,1.80
2018-12-22T06:10:09.942Z,2.70
2018-12-22T06:11:09.931Z,2.40
2018-12-22T06:12:09.917Z,1.70
2018-12-22T06:13:09.928Z,1.90
2018-12-22T06:14:09.897Z,1.70
2018-12-22T06:15:09.879Z,1.80
2018-12-22T06:16:09.872Z,1.60
2018-12-22T06:17:09.862Z,2.70
2018-12-22T06:18:09.861Z,2.10
2018-12-22T06:19:09.835Z,1.60
2018-12-22T06:20:09.828Z,1.80
2018-12-22T06:21:09.815Z,2.00
2018-12-22T06:22:09.807Z,2.10
2018-12-22T06:23:09.813Z,4.50
2018-12-22T06:24:09.793Z,4.00
2018-12-22T06:25:09.783Z,3.30
2018-12-22T06:26:09.761Z,1.40
2018-12-22T06:27:09.744Z,1.70
2018-12-22T06:28:09.749Z,2.00
2018-12-22T06:29:09.731Z,2.00
2018-12-22T06:30:09.724Z,2.60
2018-12-22T06:31:09.713Z,1.70
2018-12-22T06:32:09.689Z,2.40
2018-12-22T06:33:09.701Z,1.90
2018-12-22T06:34:09.667Z,2.30
2018-12-22T06:35:09.660Z,1.50
2018-12-22T06:36:09.643Z,3.60
2018-12-22T06:37:09.635Z,3.30
2018-12-22T06:38:09.622Z,3.60
2018-12-22T06:39:09.622Z,2.60
2018-12-22T06:40:09.609Z,3.80
2018-12-22T06:41:09.590Z,2.20
2018-12-22T06:42:09.583Z,2.40
2018-12-22T06:43:09.574Z,2.20
2018-12-22T06:44:09.579Z,3.40
2018-12-22T06:45:09.552Z,1.60
2018-12-22T06:46:09.636Z,3.10
2018-12-22T06:47:09.533Z,2.30
2018-12-22T06:48:09.511Z,2.90
2018-12-22T06:49:09.515Z,2.00
2018-12-22T06:50:09.487Z,3.10
2018-12-22T06:51:09.477Z,2.80
2018-12-22T06:52:09.469Z,1.70
2018-12-22T06:53:09.452Z,1.40
2018-12-22T06:54:09.467Z,1.90
2018-12-22T06:55:09.436Z,2.40
2018-12-22T06:56:09.425Z,2.10
2018-12-22T06:57:09.409Z,1.90
2018-12-22T06:58:09.413Z,2.80
2018-12-22T06:59:09.412Z,2.70
2018-12-22T07:00:17.418Z,2.30
2018-12-22T07:01:10.364Z,3.90
2018-12-22T07:02:09.353Z,2.60
2018-12-22T07:03:09.347Z,2.70
2018-12-22T07:04:09.357Z,3.00
2018-12-22T07:05:09.322Z,1.70
2018-12-22T07:06:09.305Z,2.70
2018-12-22T07:07:09.297Z,3.10
2018-12-22T07:08:09.384Z,1.50
2018-12-22T07:09:09.287Z,1.70
2018-12-22T07:10:09.268Z,4.80
2018-12-22T07:11:09.252Z,2.50
2018-12-22T07:12:09.239Z,2.20
2018-12-22T07:13:09.231Z,2.10
2018-12-22T07:14:09.233Z,2.90
2018-12-22T07:15:09.213Z,2.40
2018-12-22T07:16:09.195Z,2.40
2018-12-22T07:17:09.181Z,2.30
2018-12-22T07:18:09.175Z,2.10
2018-12-22T07:19:09.183Z,3.10
2018-12-22T07:20:09.156Z,2.40
2018-12-22T07:21:09.137Z,3.30
2018-12-22T07:22:09.127Z,3.40
2018-12-22T07:23:09.120Z,3.90
2018-12-22T07:24:09.139Z,2.50
2018-12-22T07:25:09.096Z,1.90
2018-12-22T07:26:09.095Z,2.80
2018-12-22T07:27:09.072Z,2.90
2018-12-22T07:28:09.056Z,1.80
2018-12-22T07:29:09.047Z,2.40
2018-12-22T07:30:09.075Z,3.70
2018-12-22T07:31:09.023Z,3.40
2018-12-22T07:32:09.024Z,4.60
2018-12-22T07:33:09.005Z,4.30
2018-12-22T07:34:09.000Z,2.00
2018-12-22T07:35:09.007Z,2.70
2018-12-22T07:36:08.966Z,3.30
2018-12-22T07:37:08.965Z,2.60
2018-12-22T07:38:08.951Z,1.90
2018-12-22T07:39:08.945Z,2.00
2018-12-22T07:40:08.955Z,1.40
2018-12-22T07:41:08.910Z,2.90
2018-12-22T07:42:08.940Z,2.50
2018-12-22T07:43:08.895Z,3.80
2018-12-22T07:44:08.883Z,2.40
2018-12-22T07:45:08.887Z,1.70
2018-12-22T07:46:08.859Z,3.10
2018-12-22T07:47:08.844Z,2.80
2018-12-22T07:48:08.836Z,4.80
2018-12-22T07:49:08.826Z,2.60
2018-12-22T07:50:08.840Z,3.40
2018-12-22T07:51:08.798Z,4.00
2018-12-22T07:52:08.784Z,2.70
2018-12-22T07:53:08.785Z,3.80
2018-12-22T07:54:08.768Z,2.40
2018-12-22T07:55:08.775Z,3.40
2018-12-22T07:56:08.741Z,3.70
2018-12-22T07:57:08.732Z,2.60
2018-12-22T07:58:08.725Z,3.30
2018-12-22T07:59:08.710Z,5.70
2018-12-22T08:00:08.718Z,2.00
2018-12-22T08:01:08.708Z,3.00
2018-12-22T08:02:08.697Z,3.40
2018-12-22T08:03:08.664Z,4.10
2018-12-22T08:04:08.658Z,3.00
2018-12-22T08:05:08.653Z,4.90
2018-12-22T08:06:08.632Z,2.60
2018-12-22T08:07:08.618Z,3.20
2018-12-22T08:08:08.609Z,3.90
2018-12-22T08:09:08.598Z,2.80
2018-12-22T08:10:08.608Z,4.20
2018-12-22T08:11:08.578Z,3.50
2018-12-22T08:12:08.577Z,3.60
2018-12-22T08:13:08.555Z,3.70
2018-12-22T08:14:08.541Z,3.70
2018-12-22T08:15:08.550Z,3.60
2018-12-22T08:16:08.520Z,3.50
2018-12-22T08:17:08.513Z,3.70
2018-12-22T08:18:08.496Z,3.10
2018-12-22T08:19:08.485Z,3.70
2018-12-22T08:20:08.474Z,3.40
2018-12-22T08:21:08.479Z,4.60
2018-12-22T08:22:08.637Z,3.20
2018-12-22T08:23:08.445Z,2.70
2018-12-22T08:24:08.428Z,3.30
2018-12-22T08:25:08.415Z,4.90
2018-12-22T08:26:08.431Z,3.00
2018-12-22T08:27:08.400Z,3.50
2018-12-22T08:28:08.388Z,4.00
2018-12-22T08:29:08.378Z,2.90
2018-12-22T08:30:08.359Z,4.00
2018-12-22T08:31:08.385Z,3.50
2018-12-22T08:32:08.346Z,5.10
2018-12-22T08:33:08.323Z,3.10
2018-12-22T08:34:08.318Z,6.40
2018-12-22T08:35:08.309Z,3.80
2018-12-22T08:36:08.316Z,5.20
2018-12-22T08:37:08.288Z,3.90
2018-12-22T08:38:08.279Z,2.90
2018-12-22T08:39:08.256Z,4.70
2018-12-22T08:40:08.261Z,4.10
2018-12-22T08:41:08.260Z,3.50
2018-12-22T08:42:08.225Z,4.20
2018-12-22T08:43:08.216Z,5.10
2018-12-22T08:44:08.201Z,5.00
2018-12-22T08:45:08.200Z,3.80
2018-12-22T08:46:08.203Z,3.10
2018-12-22T08:47:08.170Z,3.20
2018-12-22T08:48:08.178Z,3.50
2018-12-22T08:49:08.155Z,4.80
2018-12-22T08:50:09.355Z,4.70
2018-12-22T08:51:08.141Z,4.20
2018-12-22T08:52:08.112Z,7.00
2018-12-22T08:53:08.101Z,4.60
2018-12-22T08:54:08.091Z,4.40
2018-12-22T08:55:08.086Z,5.10
2018-12-22T08:56:08.093Z,3.90
2018-12-22T08:57:08.328Z,4.70
2018-12-22T08:58:08.049Z,5.70
2018-12-22T08:59:08.037Z,3.60
2018-12-22T09:00:08.024Z,5.10
2018-12-22T09:01:08.043Z,4.80
2018-12-22T09:02:08.003Z,3.90
2018-12-22T09:03:08.004Z,4.60
2018-12-22T09:04:07.997Z,3.90
2018-12-22T09:05:07.968Z,2.20
2018-12-22T09:06:07.956Z,5.40
2018-12-22T09:07:08.051Z,6.20
2018-12-22T09:08:07.936Z,3.90
2018-12-22T09:09:07.933Z,3.90
2018-12-22T09:10:07.912Z,3.70
2018-12-22T09:11:07.895Z,3.60
2018-12-22T09:12:07.912Z,7.60
2018-12-22T09:13:07.875Z,3.90
2018-12-22T09:14:07.881Z,4.10
2018-12-22T09:15:07.868Z,4.90
2018-12-22T09:16:07.842Z,4.20
2018-12-22T09:17:07.859Z,4.60
2018-12-22T09:18:07.822Z,5.10
2018-12-22T09:19:07.811Z,4.20
2018-12-22T09:20:07.805Z,4.00
2018-12-22T09:21:07.786Z,6.60
2018-12-22T09:22:07.802Z,4.90
2018-12-22T09:23:07.778Z,2.90
2018-12-22T09:24:07.758Z,5.30
2018-12-22T09:25:07.745Z,4.20
2018-12-22T09:26:08.580Z,6.50
2018-12-22T09:27:07.746Z,4.50
2018-12-22T09:28:07.705Z,2.60
2018-12-22T09:29:07.709Z,3.80
2018-12-22T09:30:07.692Z,4.20
2018-12-22T09:31:07.683Z,2.90
2018-12-22T09:32:07.694Z,4.70
2018-12-22T09:33:07.658Z,4.50
2018-12-22T09:34:13.294Z,4.90
2018-12-22T09:35:08.630Z,4.10
2018-12-22T09:36:07.622Z,2.80
2018-12-22T09:37:07.636Z,5.90
2018-12-22T09:38:07.596Z,3.20
2018-12-22T09:39:07.664Z,5.10
2018-12-22T09:40:07.578Z,11.90
2018-12-22T09:41:07.562Z,3.10
2018-12-22T09:42:07.555Z,6.20
2018-12-22T09:43:07.564Z,5.40
2018-12-22T09:44:07.526Z,4.40
2018-12-22T09:45:07.515Z,4.70
2018-12-22T09:46:07.509Z,4.70
2018-12-22T09:47:07.499Z,3.90
2018-12-22T09:48:07.505Z,2.40
2018-12-22T09:50:08.611Z,6.70
2018-12-22T09:51:07.455Z,4.40
2018-12-22T09:52:07.444Z,4.30
2018-12-22T09:53:07.574Z,4.70
2018-12-22T09:54:07.426Z,4.90
2018-12-22T09:55:07.405Z,4.70
2018-12-22T09:56:07.395Z,5.40
2018-12-22T09:57:07.387Z,3.40
2018-12-22T09:58:07.391Z,6.10
2018-12-22T09:59:07.360Z,5.40
2018-12-22T10:00:07.347Z,3.60
2018-12-22T10:01:09.516Z,4.40
2018-12-22T10:02:07.330Z,7.00
2018-12-22T10:03:07.338Z,3.60
2018-12-22T10:04:07.302Z,3.70
2018-12-22T10:05:07.294Z,4.20
2018-12-22T10:06:07.282Z,4.40
2018-12-22T10:07:07.270Z,4.30
2018-12-22T10:08:07.289Z,4.40
2018-12-22T10:09:07.249Z,5.00
2018-12-22T10:10:07.234Z,3.30
2018-12-22T10:11:07.225Z,3.40
2018-12-22T10:12:07.208Z,6.00
2018-12-22T10:13:07.230Z,4.10
2018-12-22T10:14:07.193Z,4.70
2018-12-22T10:15:07.179Z,5.90
2018-12-22T10:16:07.178Z,4.10
2018-12-22T10:17:07.156Z,3.30
2018-12-22T10:18:07.290Z,3.30
2018-12-22T10:19:07.134Z,4.00
2018-12-22T10:20:07.127Z,4.00
2018-12-22T10:21:07.112Z,3.90
2018-12-22T10:22:07.100Z,3.50
2018-12-22T10:23:07.117Z,3.10
2018-12-22T10:24:07.093Z,4.70
2018-12-22T10:25:07.066Z,3.30
2018-12-22T10:26:07.053Z,2.50
2018-12-22T10:27:07.050Z,3.00
2018-12-22T10:28:07.057Z,3.20
2018-12-22T10:29:07.080Z,3.40
2018-12-22T10:30:07.007Z,3.00
2018-12-22T10:31:06.997Z,3.70
2018-12-22T10:32:06.992Z,2.50
2018-12-22T10:33:06.992Z,3.50
2018-12-22T10:34:06.968Z,2.30
2018-12-22T10:35:06.958Z,3.70
2018-12-22T10:36:06.942Z,3.20
2018-12-22T10:37:06.930Z,4.20
2018-12-22T10:38:06.922Z,3.50
2018-12-22T10:39:06.931Z,3.20
2018-12-22T10:40:06.892Z,2.50
2018-12-22T10:41:06.890Z,3.20
2018-12-22T10:42:06.875Z,2.50
2018-12-22T10:43:06.867Z,3.10
2018-12-22T10:44:06.884Z,5.30
2018-12-22T10:45:06.850Z,3.50
2018-12-22T10:46:06.826Z,2.80
2018-12-22T10:47:06.824Z,4.70
2018-12-22T10:48:06.806Z,3.70
2018-12-22T10:49:07.698Z,2.70
2018-12-22T10:50:06.804Z,2.30
2018-12-22T10:51:06.774Z,2.60
2018-12-22T10:52:06.764Z,3.80
2018-12-22T10:53:06.753Z,2.10
2018-12-22T10:54:06.758Z,2.00
2018-12-22T10:55:06.726Z,2.20
2018-12-22T10:56:06.726Z,2.40
2018-12-22T10:57:06.702Z,2.30
2018-12-22T10:58:06.694Z,2.50
2018-12-22T10:59:06.769Z,3.50
2018-12-22T11:00:06.669Z,2.20
2018-12-22T11:01:06.663Z,3.20
2018-12-22T11:02:06.643Z,2.60
2018-12-22T11:03:06.653Z,3.10
2018-12-22T11:04:06.636Z,2.80
2018-12-22T11:05:06.616Z,2.30
2018-12-22T11:06:06.600Z,2.40
2018-12-22T11:07:06.598Z,2.40
2018-12-22T11:08:06.584Z,2.50
2018-12-22T11:09:06.590Z,3.10
2018-12-22T11:10:06.557Z,3.30
2018-12-22T11:11:06.554Z,2.50
2018-12-22T11:12:06.549Z,2.90
2018-12-22T11:13:06.531Z,1.80
2018-12-22T11:14:06.546Z,2.30
2018-12-22T11:15:06.502Z,3.70
2018-12-22T11:16:06.498Z,3.50
2018-12-22T11:17:06.477Z,2.40
2018-12-22T11:18:06.476Z,3.20
2018-12-22T11:19:06.581Z,2.60
2018-12-22T11:20:06.445Z,2.90
2018-12-22T11:21:06.430Z,2.30
2018-12-22T11:22:06.427Z,4.20
2018-12-22T11:23:06.409Z,2.70
2018-12-22T11:24:06.422Z,2.20
2018-12-22T11:25:06.392Z,2.10
2018-12-22T11:26:06.380Z,2.10
2018-12-22T11:27:06.372Z,2.00
2018-12-22T11:28:06.355Z,2.10
2018-12-22T11:29:06.363Z,2.20
2018-12-22T11:30:06.336Z,1.90
2018-12-22T11:31:06.321Z,3.60
2018-12-22T11:32:06.317Z,2.30
2018-12-22T11:33:06.333Z,2.80
2018-12-22T11:34:06.319Z,2.60
2018-12-22T11:35:06.282Z,2.30
2018-12-22T11:36:06.327Z,3.00
2018-12-22T11:37:06.253Z,4.00
2018-12-22T11:39:07.484Z,2.80
2018-12-22T11:42:07.384Z,3.20
2018-12-22T11:43:06.224Z,2.50
2018-12-22T11:44:06.189Z,3.10
2018-12-22T11:45:06.232Z,2.40
2018-12-22T11:46:06.188Z,3.50
2018-12-22T11:47:06.166Z,3.30
2018-12-22T11:48:06.214Z,3.50
2018-12-22T11:49:06.319Z,3.30
2018-12-22T11:50:06.140Z,2.80
2018-12-22T11:51:06.098Z,2.60
2018-12-22T11:52:06.089Z,2.20
2018-12-22T11:53:06.082Z,2.90
2018-12-22T11:54:06.075Z,2.40
2018-12-22T11:55:06.068Z,2.50
2018-12-22T11:56:06.044Z,2.50
2018-12-22T11:57:06.027Z,2.40
2018-12-22T11:58:06.023Z,3.00
2018-12-22T11:59:06.008Z,3.80
2018-12-22T12:00:06.110Z,2.60
2018-12-22T12:01:06.001Z,2.60
2018-12-22T12:02:09.934Z,2.90
2018-12-22T12:03:05.974Z,2.30
2018-12-22T12:04:05.962Z,2.80
2018-12-22T12:09:08.656Z,3.00
2018-12-22T12:10:08.674Z,3.00
2018-12-22T12:11:08.644Z,2.90
2018-12-22T12:12:08.473Z,2.70
2018-12-22T12:13:08.449Z,3.10
2018-12-22T12:14:08.440Z,4.10
2018-12-22T12:15:08.458Z,2.60
2018-12-22T12:16:08.422Z,2.90
2018-12-22T12:17:08.408Z,2.70
2018-12-22T12:18:08.402Z,2.40
2018-12-22T12:19:08.382Z,2.60
2018-12-22T12:20:08.392Z,2.40
2018-12-22T12:21:08.391Z,2.30
2018-12-22T12:22:08.356Z,2.40
2018-12-22T12:23:08.347Z,2.40
2018-12-22T12:24:08.346Z,2.50
2018-12-22T12:25:08.373Z,2.50
2018-12-22T12:26:08.309Z,2.70
2018-12-22T12:27:08.297Z,2.60
2018-12-22T12:28:08.285Z,2.80
2018-12-22T12:29:08.271Z,2.80
2018-12-22T12:30:08.262Z,3.00
2018-12-22T12:31:08.272Z,2.70
2018-12-22T12:32:08.248Z,2.60
2018-12-22T12:33:08.228Z,2.70
2018-12-22T12:34:08.232Z,2.80
2018-12-22T12:35:08.210Z,2.90
2018-12-22T12:36:08.207Z,3.00
2018-12-22T12:37:08.198Z,3.10
2018-12-22T12:38:08.172Z,3.80
2018-12-22T12:39:08.166Z,3.20
2018-12-22T12:40:08.157Z,3.30
2018-12-22T12:41:08.167Z,4.10
2018-12-22T12:42:08.127Z,3.30
2018-12-22T12:43:08.122Z,3.10
2018-12-22T12:44:08.105Z,3.30
2018-12-22T12:45:08.090Z,3.20
2018-12-22T12:46:08.099Z,2.80
2018-12-22T12:47:08.071Z,2.60
2018-12-22T12:48:08.062Z,2.60
2018-12-22T12:49:08.046Z,2.60
2018-12-22T12:50:08.048Z,2.70
2018-12-22T12:51:08.052Z,2.70
2018-12-22T12:52:08.032Z,2.80
2018-12-22T12:53:09.780Z,2.10
2018-12-22T12:54:08.024Z,2.50
2018-12-22T12:55:07.984Z,2.00
2018-12-22T12:56:08.024Z,2.50
2018-12-22T12:57:07.968Z,2.20
2018-12-22T12:58:07.945Z,1.90
2018-12-22T12:59:07.931Z,3.00
2018-12-22T13:00:07.924Z,2.60
2018-12-22T13:01:07.929Z,2.40
2018-12-22T13:02:07.903Z,2.90
2018-12-22T13:03:08.437Z,2.70
2018-12-22T13:04:07.878Z,1.90
2018-12-22T13:05:07.876Z,2.00
2018-12-22T13:06:07.880Z,2.20
2018-12-22T13:07:07.847Z,2.00
2018-12-22T13:08:07.847Z,2.20
2018-12-22T13:09:07.820Z,2.70
2018-12-22T13:10:07.815Z,2.50
2018-12-22T13:11:07.827Z,2.30
2018-12-22T13:12:07.796Z,3.00
2018-12-22T13:13:07.774Z,2.30
2018-12-22T13:14:07.963Z,2.40
2018-12-22T13:15:07.753Z,3.20
2018-12-22T13:16:07.741Z,3.00
2018-12-22T13:17:07.763Z,2.60
2018-12-22T13:18:07.715Z,2.70
2018-12-22T13:19:07.714Z,3.20
2018-12-22T13:20:07.724Z,2.80
2018-12-22T13:21:07.684Z,3.10
2018-12-22T13:22:07.691Z,2.70
2018-12-22T13:23:07.664Z,3.10
2018-12-22T13:24:07.651Z,2.70
2018-12-22T13:25:07.647Z,2.70
2018-12-22T13:26:07.632Z,2.50